Time;durP1;ratioP1;P1;durP2;ratioP2;P2;SDS_P1;SDS_P2;PMS_P1;PMS_P2;Temp;Humidity;BMP_temperature;BMP_pressure;BME280_temperature;BME280_humidity;BME280_pressure;Samples;Min_cycle;Max_cycle;Signal;HPM_P1;HPM_P2
2023/02/21 02:15:34;;;;;;;13.60;10.70;;;9.80;99.90;;;;;;5073480;28;20240;-84
2023/02/21 02:18:37;;;;;;;17.80;11.30;;;9.80;99.90;;;;;;5094181;28;20290;-84
2023/02/21 02:21:28;;;;;;;13.23;9.95;;;9.80;99.90;;;;;;5094253;28;20229;-84
2023/02/21 02:24:17;;;;;;;13.95;10.90;;;9.80;99.90;;;;;;5092688;28;20211;-84
2023/02/21 02:27:01;;;;;;;15.30;10.55;;;9.80;99.90;;;;;;5092848;28;20249;-82
2023/02/21 02:29:37;;;;;;;15.18;11.10;;;9.80;99.90;;;;;;5093012;28;20661;-85
2023/02/21 02:32:38;;;;;;;17.48;11.18;;;9.80;99.90;;;;;;5093064;28;20204;-83
2023/02/21 02:35:34;;;;;;;18.05;12.18;;;9.70;99.90;;;;;;5071546;28;20212;-84
2023/02/21 02:38:05;;;;;;;16.92;10.18;;;9.70;99.90;;;;;;5091638;28;20258;-84
2023/02/21 02:40:46;;;;;;;14.77;11.00;;;9.70;99.90;;;;;;5094064;28;20168;-83
2023/02/21 02:43:32;;;;;;;13.18;11.30;;;9.70;99.90;;;;;;5092605;28;20198;-84
2023/02/21 02:46:14;;;;;;;19.23;12.13;;;9.70;99.90;;;;;;5092727;28;20237;-82
2023/02/21 02:48:44;;;;;;;12.95;11.00;;;9.70;99.90;;;;;;5093945;28;20188;-83
2023/02/21 02:51:14;;;;;;;17.95;11.70;;;9.70;99.90;;;;;;5092616;28;20180;-83
2023/02/21 02:53:40;;;;;;;13.07;11.15;;;9.80;99.90;;;;;;5093736;28;20680;-82
2023/02/21 02:56:12;;;;;;;16.20;11.23;;;9.70;99.90;;;;;;5093896;28;20184;-82
2023/02/21 02:58:53;;;;;;;14.48;10.50;;;9.80;99.90;;;;;;5093896;28;20641;-83
2023/02/21 03:01:50;;;;;;;14.05;11.95;;;9.80;99.90;;;;;;5092875;28;20212;-84
2023/02/21 03:04:50;;;;;;;14.50;11.25;;;9.80;99.90;;;;;;5094082;28;20493;-84
2023/02/21 03:07:43;;;;;;;17.02;11.57;;;9.80;99.90;;;;;;5092439;28;20200;-84
2023/02/21 03:10:27;;;;;;;13.88;10.35;;;9.80;99.90;;;;;;5094321;28;20183;-83
2023/02/21 03:13:33;;;;;;;11.77;10.40;;;9.80;99.90;;;;;;5092242;28;20199;-84
2023/02/21 03:16:04;;;;;;;16.17;11.75;;;9.80;99.90;;;;;;5091839;28;20224;-83
2023/02/21 03:18:42;;;;;;;17.08;11.52;;;9.90;99.90;;;;;;5093699;28;20275;-84
2023/02/21 03:21:14;;;;;;;18.15;12.13;;;9.90;99.90;;;;;;5092402;28;20172;-84
2023/02/21 03:23:42;;;;;;;17.40;12.73;;;9.90;99.90;;;;;;5092272;28;20200;-82
2023/02/21 03:26:11;;;;;;;15.27;10.75;;;10.00;99.90;;;;;;5092296;28;20176;-84
2023/02/21 03:28:36;;;;;;;15.35;11.60;;;10.00;99.90;;;;;;5092251;28;20660;-84
2023/02/21 03:31:06;;;;;;;17.53;12.20;;;10.10;99.90;;;;;;5092368;28;20259;-84
2023/02/21 03:33:32;;;;;;;18.25;12.52;;;10.10;99.90;;;;;;5092117;28;20433;-84
2023/02/21 03:36:01;;;;;;;16.25;11.70;;;10.20;99.90;;;;;;5093803;28;20204;-83
2023/02/21 03:38:28;;;;;;;14.57;10.77;;;10.20;99.90;;;;;;5097467;28;20200;-83
2023/02/21 03:40:54;;;;;;;16.20;11.35;;;10.20;99.90;;;;;;5097340;28;20169;-84
2023/02/21 03:43:20;;;;;;;14.63;11.40;;;10.20;99.90;;;;;;5096102;28;20200;-82
2023/02/21 03:45:45;;;;;;;17.30;12.10;;;10.20;99.90;;;;;;5095970;28;20233;-84
2023/02/21 03:48:11;;;;;;;15.43;11.93;;;10.20;99.90;;;;;;5095911;28;20204;-83
2023/02/21 03:50:37;;;;;;;21.57;13.47;;;10.20;99.90;;;;;;5097068;28;20176;-84
2023/02/21 03:53:03;;;;;;;17.37;12.80;;;10.20;99.90;;;;;;5096993;28;20287;-82
2023/02/21 03:55:29;;;;;;;17.10;12.20;;;10.20;99.90;;;;;;5095770;28;20204;-82
2023/02/21 03:57:55;;;;;;;16.67;12.77;;;10.20;99.90;;;;;;5096995;28;20193;-84
2023/02/21 04:00:21;;;;;;;15.95;12.15;;;10.20;99.90;;;;;;5097862;28;20617;-82
2023/02/21 04:02:47;;;;;;;14.57;11.40;;;10.20;99.90;;;;;;5095817;28;20207;-85
2023/02/21 04:05:12;;;;;;;17.73;13.00;;;10.20;99.90;;;;;;5097950;28;20408;-85
2023/02/21 04:07:38;;;;;;;13.87;11.70;;;10.20;99.90;;;;;;5097429;28;20192;-84
2023/02/21 04:10:04;;;;;;;17.30;12.00;;;10.30;99.90;;;;;;5095767;28;20275;-84
2023/02/21 04:12:30;;;;;;;17.33;11.45;;;10.30;99.90;;;;;;5095412;28;20846;-83
2023/02/21 04:14:57;;;;;;;18.87;12.53;;;10.30;99.90;;;;;;5095246;28;20267;-84
2023/02/21 04:17:23;;;;;;;14.30;11.77;;;10.30;99.90;;;;;;5096611;28;20212;-84
2023/02/21 04:19:49;;;;;;;16.55;12.07;;;10.30;99.90;;;;;;5097019;28;20189;-83
2023/02/21 04:22:18;;;;;;;15.13;11.93;;;10.30;99.90;;;;;;5095265;28;20727;-83
2023/02/21 04:24:46;;;;;;;16.42;12.57;;;10.30;99.90;;;;;;5096531;28;20420;-83
2023/02/21 04:27:13;;;;;;;15.10;12.13;;;10.30;99.90;;;;;;5095204;28;20196;-83
2023/02/21 04:29:38;;;;;;;19.13;12.13;;;10.30;99.90;;;;;;5095317;28;20180;-83
2023/02/21 04:32:04;;;;;;;17.10;11.87;;;10.30;99.90;;;;;;5095074;28;20264;-83
2023/02/21 04:34:30;;;;;;;18.00;12.53;;;10.20;99.90;;;;;;5095056;28;20231;-83
2023/02/21 04:36:55;;;;;;;17.23;12.47;;;10.20;99.90;;;;;;5094861;28;20169;-83
2023/02/21 04:39:21;;;;;;;15.83;11.27;;;10.20;99.90;;;;;;5096562;28;20177;-83
2023/02/21 04:41:47;;;;;;;14.93;11.87;;;10.10;99.90;;;;;;5096145;28;20253;-83
2023/02/21 04:44:13;;;;;;;16.33;13.07;;;10.10;99.90;;;;;;5096476;28;20184;-83
2023/02/21 04:46:38;;;;;;;16.37;12.23;;;10.10;99.90;;;;;;5094598;28;20384;-82
2023/02/21 04:49:04;;;;;;;15.47;12.60;;;10.00;99.90;;;;;;5094837;28;20238;-83
2023/02/21 04:51:30;;;;;;;17.77;12.13;;;9.90;99.90;;;;;;5095875;28;20214;-83
2023/02/21 04:53:56;;;;;;;17.20;12.70;;;9.90;99.90;;;;;;5094550;28;20460;-84
2023/02/21 04:56:24;;;;;;;15.85;11.77;;;9.80;99.90;;;;;;5095927;28;20539;-83
2023/02/21 04:58:50;;;;;;;16.10;11.55;;;9.80;99.90;;;;;;5095920;28;20295;-83
2023/02/21 05:01:17;;;;;;;17.20;12.40;;;9.80;99.90;;;;;;5095818;28;20547;-83
2023/02/21 05:03:43;;;;;;;16.90;12.20;;;9.80;99.90;;;;;;5095584;28;20196;-83
2023/02/21 05:06:09;;;;;;;18.20;13.20;;;9.80;99.90;;;;;;5095628;28;20668;-82
2023/02/21 05:08:35;;;;;;;17.23;13.05;;;9.80;99.90;;;;;;5095260;28;20440;-83
2023/02/21 05:11:01;;;;;;;14.35;12.00;;;9.80;99.90;;;;;;5095634;28;20169;-83
2023/02/21 05:13:27;;;;;;;16.10;12.43;;;9.70;99.90;;;;;;5095265;28;20204;-83
2023/02/21 05:15:53;;;;;;;15.60;12.20;;;9.80;99.90;;;;;;5093867;28;20550;-83
2023/02/21 05:18:22;;;;;;;16.03;11.50;;;9.80;99.90;;;;;;5093755;28;20478;-83
2023/02/21 05:20:50;;;;;;;15.50;12.30;;;9.80;99.90;;;;;;5095243;28;20401;-83
2023/02/21 05:23:17;;;;;;;18.52;13.07;;;9.80;99.90;;;;;;5095451;28;20191;-83
2023/02/21 05:25:43;;;;;;;20.83;13.85;;;9.80;99.90;;;;;;5093889;28;20548;-83
2023/02/21 05:28:09;;;;;;;17.17;12.80;;;9.80;99.90;;;;;;5093752;28;20223;-83
2023/02/21 05:30:35;;;;;;;17.73;13.17;;;9.80;99.90;;;;;;5094283;28;20222;-82
2023/02/21 05:33:01;;;;;;;16.80;12.70;;;9.80;99.90;;;;;;5095059;28;20214;-83
2023/02/21 05:35:26;;;;;;;19.77;12.83;;;9.80;99.90;;;;;;5095114;28;20932;-83
2023/02/21 05:37:52;;;;;;;17.97;13.10;;;9.80;99.90;;;;;;5094996;28;20200;-83
2023/02/21 05:40:18;;;;;;;22.63;15.20;;;9.80;99.90;;;;;;5095550;28;20257;-83
2023/02/21 05:42:44;;;;;;;34.27;19.43;;;9.90;99.90;;;;;;5094896;28;20279;-83
2023/02/21 05:45:10;;;;;;;26.23;17.07;;;9.90;99.90;;;;;;5094775;28;20283;-83
2023/02/21 05:47:36;;;;;;;22.10;13.60;;;9.80;99.90;;;;;;5093585;28;20192;-83
2023/02/21 05:50:03;;;;;;;18.00;13.10;;;9.80;99.90;;;;;;5093857;28;20562;-83
2023/02/21 05:52:28;;;;;;;20.80;13.23;;;9.80;99.90;;;;;;5091972;28;20474;-83
2023/02/21 05:54:54;;;;;;;18.03;11.17;;;9.80;99.90;;;;;;5075877;28;20221;-84
2023/02/21 05:57:20;;;;;;;17.57;13.30;;;9.80;99.90;;;;;;5087626;28;20201;-83
2023/02/21 05:59:49;;;;;;;16.97;11.53;;;9.80;99.90;;;;;;5091449;28;20421;-84
2023/02/21 06:02:14;;;;;;;19.67;13.90;;;9.80;99.90;;;;;;5089759;28;20200;-83
2023/02/21 06:04:40;;;;;;;18.40;13.77;;;9.90;99.90;;;;;;5088970;28;20195;-84
2023/02/21 06:07:07;;;;;;;25.20;15.97;;;9.90;99.90;;;;;;5092704;28;20945;-84
2023/02/21 06:09:33;;;;;;;20.25;13.52;;;9.90;99.90;;;;;;5090849;28;20275;-83
2023/02/21 06:11:59;;;;;;;17.58;13.27;;;9.90;99.90;;;;;;5092775;28;20209;-83
2023/02/21 06:14:25;;;;;;;14.70;12.30;;;9.90;99.90;;;;;;5090762;28;20236;-83
2023/02/21 06:16:51;;;;;;;16.27;12.85;;;9.90;99.90;;;;;;5092044;28;20550;-84
2023/02/21 06:19:17;;;;;;;16.27;13.20;;;9.90;99.90;;;;;;5090615;28;20184;-83
2023/02/21 06:21:44;;;;;;;19.27;13.02;;;9.90;99.90;;;;;;5089325;28;20940;-84
2023/02/21 06:24:11;;;;;;;20.02;14.00;;;9.90;99.90;;;;;;5087570;28;20181;-84
2023/02/21 06:26:37;;;;;;;18.38;12.60;;;10.00;99.90;;;;;;5092489;28;20633;-83
2023/02/21 06:29:04;;;;;;;17.50;12.35;;;10.00;99.90;;;;;;5092523;28;20219;-83
2023/02/21 06:31:30;;;;;;;17.13;12.73;;;10.10;99.90;;;;;;5092401;28;20238;-83
2023/02/21 06:33:56;;;;;;;22.10;15.05;;;10.20;99.90;;;;;;5093368;28;20204;-84
2023/02/21 06:36:24;;;;;;;21.43;13.30;;;10.20;99.90;;;;;;5091926;28;20270;-83
2023/02/21 06:38:52;;;;;;;20.55;13.95;;;10.30;99.90;;;;;;5090199;28;20723;-84
2023/02/21 06:41:19;;;;;;;20.10;13.18;;;10.30;99.90;;;;;;5090384;28;20255;-83
2023/02/21 06:43:45;;;;;;;18.50;12.20;;;10.40;99.90;;;;;;5087975;28;20236;-83
2023/02/21 06:46:22;;;;;;;18.37;13.17;;;10.40;99.90;;;;;;5092169;28;20200;-84
2023/02/21 06:48:49;;;;;;;16.17;11.35;;;10.60;99.90;;;;;;5090198;28;20261;-84
2023/02/21 06:51:15;;;;;;;15.93;10.70;;;10.70;99.90;;;;;;5091058;28;20180;-85
2023/02/21 06:53:42;;;;;;;12.93;11.20;;;10.70;99.90;;;;;;5089338;28;20666;-84
2023/02/21 06:56:08;;;;;;;18.38;11.70;;;10.80;99.90;;;;;;5090534;28;20198;-85
2023/02/21 06:58:34;;;;;;;13.25;10.70;;;11.00;99.90;;;;;;5088360;28;20200;-84
2023/02/21 07:01:00;;;;;;;10.53;9.40;;;11.00;99.90;;;;;;5088990;28;20191;-83
2023/02/21 07:03:26;;;;;;;15.53;9.97;;;11.10;99.90;;;;;;5089650;28;20196;-85
2023/02/21 07:05:51;;;;;;;15.83;10.93;;;11.30;99.90;;;;;;5089825;28;20244;-85
2023/02/21 07:08:17;;;;;;;13.33;9.80;;;11.40;99.90;;;;;;5089358;28;20925;-84
2023/02/21 07:10:43;;;;;;;15.13;11.73;;;11.60;99.90;;;;;;5089383;28;20518;-84
2023/02/21 07:13:09;;;;;;;36.80;23.50;;;11.70;99.90;;;;;;5090071;28;20437;-85
2023/02/21 07:15:35;;;;;;;14.53;10.07;;;11.80;99.90;;;;;;5094676;28;20227;-85
2023/02/21 07:18:00;;;;;;;12.87;10.60;;;11.90;99.90;;;;;;5092630;28;20196;-85
2023/02/21 07:20:26;;;;;;;14.00;10.10;;;12.00;99.90;;;;;;5107930;28;20283;-84
2023/02/21 07:22:52;;;;;;;13.07;10.33;;;12.10;99.90;;;;;;5094971;28;20196;-84
2023/02/21 07:25:21;;;;;;;14.53;10.37;;;12.30;99.90;;;;;;5094454;28;20887;-85
2023/02/21 07:27:48;;;;;;;12.98;9.48;;;12.40;99.90;;;;;;5093263;28;20549;-85
2023/02/21 07:30:15;;;;;;;12.20;9.05;;;12.50;99.90;;;;;;5093882;28;20173;-85
2023/02/21 07:32:41;;;;;;;11.87;9.90;;;12.70;99.90;;;;;;5092891;28;20199;-84
2023/02/21 07:35:07;;;;;;;13.23;9.90;;;12.80;99.90;;;;;;5094730;28;20468;-85
2023/02/21 07:37:33;;;;;;;12.47;9.40;;;12.90;99.90;;;;;;5094644;28;20652;-85
2023/02/21 07:39:59;;;;;;;12.40;9.47;;;13.00;99.90;;;;;;5092555;28;20490;-84
2023/02/21 07:42:25;;;;;;;11.27;9.83;;;13.20;99.90;;;;;;5093264;28;20195;-84
2023/02/21 07:44:57;;;;;;;11.10;9.20;;;13.30;99.90;;;;;;5093433;28;20425;-85
2023/02/21 07:47:26;;;;;;;11.53;8.93;;;13.50;99.90;;;;;;5090589;28;20208;-85
2023/02/21 07:49:53;;;;;;;10.07;8.70;;;13.70;99.90;;;;;;5091471;28;20432;-85
2023/02/21 07:52:21;;;;;;;10.70;9.10;;;13.90;99.90;;;;;;5089019;28;20689;-85
2023/02/21 07:54:47;;;;;;;11.13;9.03;;;14.10;99.90;;;;;;5068644;28;20668;-86
2023/02/21 07:57:15;;;;;;;12.80;10.03;;;14.30;99.90;;;;;;5059225;28;20444;-85
2023/02/21 07:59:41;;;;;;;11.20;8.40;;;14.60;99.90;;;;;;5060195;28;20908;-85
2023/02/21 08:02:08;;;;;;;9.83;7.70;;;14.90;99.90;;;;;;5060885;28;21005;-85
2023/02/21 08:04:34;;;;;;;12.07;8.40;;;15.30;99.90;;;;;;5060118;28;20307;-85
2023/02/21 08:07:00;;;;;;;11.27;8.57;;;15.70;99.90;;;;;;5059382;28;21070;-85
2023/02/21 08:09:26;;;;;;;10.93;8.57;;;16.40;99.90;;;;;;5059085;28;20601;-85
2023/02/21 08:11:52;;;;;;;10.40;8.40;;;17.20;99.90;;;;;;5076924;28;20517;-85
2023/02/21 08:14:18;;;;;;;10.03;7.87;;;18.00;99.90;;;;;;5067818;28;20526;-85
2023/02/21 08:16:43;;;;;;;10.47;9.00;;;18.80;99.90;;;;;;5063405;28;20405;-85
2023/02/21 08:19:09;;;;;;;9.30;7.57;;;19.50;99.40;;;;;;5083371;28;20528;-85
2023/02/21 08:21:35;;;;;;;7.63;6.83;;;20.20;98.20;;;;;;5066783;28;20474;-86
2023/02/21 08:24:01;;;;;;;9.13;7.73;;;21.00;96.60;;;;;;5074412;28;20291;-86
2023/02/21 08:26:27;;;;;;;16.00;8.90;;;21.70;94.80;;;;;;5070622;28;20805;-85
2023/02/21 08:28:53;;;;;;;9.20;7.00;;;22.40;93.30;;;;;;5063931;28;20454;-83
2023/02/21 08:31:18;;;;;;;14.37;7.93;;;23.00;91.90;;;;;;5085093;28;20184;-83
2023/02/21 08:33:45;;;;;;;9.80;7.80;;;23.50;90.80;;;;;;5064558;28;20288;-84
2023/02/21 08:36:11;;;;;;;8.70;7.27;;;23.90;89.60;;;;;;5081238;28;20632;-84
2023/02/21 08:38:38;;;;;;;9.40;7.23;;;24.40;87.20;;;;;;5087812;28;20447;-85
2023/02/21 08:41:04;;;;;;;7.37;6.00;;;24.60;85.30;;;;;;5095654;28;20832;-85
2023/02/21 08:43:31;;;;;;;6.60;5.53;;;24.90;83.90;;;;;;5075169;28;20445;-85
2023/02/21 08:45:57;;;;;;;6.37;5.20;;;25.50;81.80;;;;;;5098316;28;20756;-84
2023/02/21 08:48:23;;;;;;;6.23;5.63;;;25.70;78.80;;;;;;5076257;28;20451;-85
2023/02/21 08:50:49;;;;;;;6.10;5.17;;;25.80;77.10;;;;;;5077463;28;20415;-84
2023/02/21 08:53:14;;;;;;;6.30;5.70;;;25.90;77.20;;;;;;5100587;28;20195;-85
2023/02/21 08:55:41;;;;;;;6.40;5.67;;;26.20;76.10;;;;;;5095228;28;20467;-85
2023/02/21 08:58:10;;;;;;;5.80;5.10;;;26.40;74.50;;;;;;5087506;28;20629;-86
2023/02/21 09:00:35;;;;;;;5.87;5.10;;;26.70;74.10;;;;;;5066983;28;20963;-83
2023/02/21 09:03:01;;;;;;;6.40;5.83;;;27.00;72.90;;;;;;5114944;28;20459;-84
2023/02/21 09:05:28;;;;;;;5.67;5.17;;;27.50;72.10;;;;;;5095123;28;20187;-84
2023/02/21 09:07:58;;;;;;;6.27;5.67;;;27.90;71.60;;;;;;5095003;28;20237;-84
2023/02/21 09:10:33;;;;;;;8.27;5.83;;;28.30;70.50;;;;;;5113469;28;20412;-86
2023/02/21 09:12:59;;;;;;;5.53;5.03;;;28.50;68.30;;;;;;5099552;28;20440;-85
2023/02/21 09:15:25;;;;;;;5.50;4.63;;;28.50;68.00;;;;;;5092622;28;20509;-84
2023/02/21 09:17:53;;;;;;;7.87;5.47;;;28.70;68.00;;;;;;5097046;28;20451;-85
2023/02/21 09:20:23;;;;;;;7.27;4.20;;;29.20;66.80;;;;;;5091618;28;20201;-85
2023/02/21 09:22:49;;;;;;;4.73;4.30;;;29.40;66.30;;;;;;5100138;28;20468;-85
2023/02/21 09:25:18;;;;;;;5.47;3.67;;;29.40;64.20;;;;;;5082950;28;20606;-85
2023/02/21 09:27:44;;;;;;;4.97;3.63;;;29.30;64.10;;;;;;5052697;28;20465;-86
2023/02/21 09:30:22;;;;;;;9.80;5.37;;;29.40;63.30;;;;;;5080308;28;20957;-86
2023/02/21 09:32:49;;;;;;;4.33;3.90;;;29.10;63.00;;;;;;5090632;28;20189;-85
2023/02/21 09:35:15;;;;;;;4.47;2.57;;;29.00;62.80;;;;;;5083264;28;20469;-85
2023/02/21 09:37:43;;;;;;;3.33;2.90;;;28.60;62.20;;;;;;5086048;28;20430;-85
2023/02/21 09:40:24;;;;;;;9.23;3.10;;;28.10;62.60;;;;;;5091555;28;20424;-85
2023/02/21 09:42:57;;;;;;;3.20;2.90;;;27.60;63.00;;;;;;5090807;28;20527;-86
2023/02/21 09:45:25;;;;;;;7.40;3.20;;;27.20;63.00;;;;;;5083703;28;20477;-84
2023/02/21 09:47:55;;;;;;;4.20;3.30;;;26.90;63.80;;;;;;5084874;28;20461;-85
2023/02/21 09:50:30;;;;;;;5.00;3.10;;;26.80;64.20;;;;;;5093964;28;20433;-86
2023/02/21 09:52:59;;;;;;;5.37;2.93;;;26.70;63.80;;;;;;5088126;28;20543;-86
2023/02/21 09:55:35;;;;;;;4.27;2.40;;;26.20;63.70;;;;;;5086957;28;21052;-86
2023/02/21 09:58:01;;;;;;;5.30;2.70;;;25.80;64.50;;;;;;5087272;28;20535;-86
2023/02/21 10:00:35;;;;;;;7.40;2.77;;;25.50;64.90;;;;;;5089925;28;20781;-86
2023/02/21 10:03:41;;;;;;;5.40;2.17;;;25.50;65.30;;;;;;5086198;28;20421;-86
2023/02/21 10:06:41;;;;;;;4.10;2.50;;;25.50;65.50;;;;;;5088639;28;20807;-86
2023/02/21 10:09:20;;;;;;;3.60;2.30;;;25.70;65.30;;;;;;5090417;28;20437;-85
2023/02/21 10:12:10;;;;;;;4.13;3.03;;;25.90;65.30;;;;;;5082927;28;20807;-86
2023/02/21 10:14:57;;;;;;;5.67;2.37;;;25.50;65.10;;;;;;5089195;28;20488;-85
2023/02/21 10:17:38;;;;;;;4.80;3.37;;;24.90;66.20;;;;;;5089093;28;20467;-86
2023/02/21 10:20:21;;;;;;;8.90;3.00;;;24.60;67.40;;;;;;5071885;28;20486;-86
2023/02/21 10:22:51;;;;;;;16.17;3.23;;;24.30;67.70;;;;;;5069965;28;20415;-86
2023/02/21 10:25:30;;;;;;;8.43;3.07;;;23.70;68.50;;;;;;5079432;28;20785;-86
2023/02/21 10:27:58;;;;;;;6.70;2.93;;;23.40;69.20;;;;;;5077298;28;20885;-86
2023/02/21 10:30:35;;;;;;;5.20;2.80;;;23.00;69.80;;;;;;5068225;28;20473;-86
2023/02/21 10:33:05;;;;;;;7.67;3.20;;;22.60;70.00;;;;;;5085034;28;20539;-85
2023/02/21 10:35:32;;;;;;;6.00;2.70;;;22.30;71.10;;;;;;5084172;28;20990;-85
2023/02/21 10:38:01;;;;;;;4.63;2.90;;;22.10;71.70;;;;;;5085991;28;20681;-84
2023/02/21 10:40:29;;;;;;;4.57;3.70;;;22.10;73.10;;;;;;5086340;28;20926;-85
2023/02/21 10:43:27;;;;;;;6.10;4.30;;;22.00;71.90;;;;;;5072072;28;20954;-86
2023/02/21 10:46:24;;;;;;;5.63;3.40;;;21.80;72.30;;;;;;5082438;28;21096;-85
2023/02/21 10:48:57;;;;;;;6.43;2.80;;;21.50;72.80;;;;;;5066656;28;20436;-86
2023/02/21 10:51:33;;;;;;;11.93;4.20;;;21.30;73.60;;;;;;5082217;28;20458;-86
2023/02/21 10:54:19;;;;;;;4.37;2.50;;;21.40;73.50;;;;;;5091844;28;20492;-86
2023/02/21 10:56:46;;;;;;;5.47;2.90;;;21.40;73.50;;;;;;5080046;28;20428;-86
2023/02/21 10:59:21;;;;;;;3.53;2.90;;;21.50;73.40;;;;;;5087763;28;20846;-87
2023/02/21 11:01:48;;;;;;;4.57;3.30;;;21.60;73.80;;;;;;5072238;28;20428;-86
2023/02/21 11:04:19;;;;;;;4.97;4.30;;;21.60;73.10;;;;;;5083136;28;20451;-86
2023/02/21 11:07:07;;;;;;;4.40;3.27;;;21.50;73.50;;;;;;5087648;28;20417;-86
2023/02/21 11:09:46;;;;;;;4.10;3.60;;;21.50;73.60;;;;;;5067763;28;20441;-87
2023/02/21 11:12:17;;;;;;;10.83;5.97;;;21.50;73.80;;;;;;5077045;28;20476;-87
2023/02/21 11:15:14;;;;;;;3.20;2.50;;;21.40;73.50;;;;;;5087502;28;20494;-87
2023/02/21 11:17:42;;;;;;;4.90;3.40;;;21.30;72.80;;;;;;5083631;28;20476;-87
2023/02/21 11:20:18;;;;;;;5.97;3.27;;;21.10;73.50;;;;;;5080179;28;20490;-87
2023/02/21 11:22:46;;;;;;;4.00;2.30;;;21.00;73.50;;;;;;5081968;28;21004;-86
2023/02/21 11:25:38;;;;;;;4.17;2.63;;;20.80;74.00;;;;;;5071943;28;20444;-85
2023/02/21 11:28:11;;;;;;;5.27;2.77;;;20.90;74.30;;;;;;5083745;28;20847;-87
2023/02/21 11:30:42;;;;;;;6.40;3.33;;;20.90;74.20;;;;;;5083261;28;20487;-86
2023/02/21 11:33:08;;;;;;;4.93;4.00;;;20.90;74.30;;;;;;5089123;28;21000;-85
2023/02/21 11:35:47;;;;;;;7.57;4.20;;;20.90;74.80;;;;;;5082820;28;20476;-86
2023/02/21 11:38:53;;;;;;;5.27;2.93;;;21.00;74.70;;;;;;5091087;28;20837;-88
2023/02/21 11:41:43;;;;;;;9.87;3.10;;;21.00;74.30;;;;;;5077726;28;20449;-86
2023/02/21 11:44:22;;;;;;;6.47;2.93;;;21.00;74.80;;;;;;5073204;28;20964;-87
2023/02/21 11:46:53;;;;;;;5.87;3.20;;;21.00;74.50;;;;;;5079336;28;20800;-88
2023/02/21 11:49:47;;;;;;;7.70;3.40;;;21.00;75.00;;;;;;5078607;28;20418;-85
2023/02/21 11:52:19;;;;;;;6.67;3.77;;;21.00;74.60;;;;;;5072095;28;20723;-88
2023/02/21 11:54:45;;;;;;;7.13;3.00;;;21.00;74.80;;;;;;5079251;28;20504;-86
2023/02/21 11:57:41;;;;;;;4.80;2.73;;;21.00;74.70;;;;;;5084553;28;20448;-87
2023/02/21 12:00:25;;;;;;;5.77;2.90;;;21.00;74.50;;;;;;5089516;28;20449;-86
2023/02/21 12:03:14;;;;;;;4.20;3.60;;;21.00;74.70;;;;;;5084695;28;20588;-85
2023/02/21 12:06:13;;;;;;;4.13;3.23;;;21.00;75.20;;;;;;5086230;28;20432;-86
2023/02/21 12:08:53;;;;;;;3.10;2.80;;;21.10;75.10;;;;;;5085156;28;20485;-85
2023/02/21 12:11:50;;;;;;;6.90;3.30;;;21.10;75.40;;;;;;5085054;28;20581;-85
2023/02/21 12:14:53;;;;;;;3.77;2.80;;;21.10;75.00;;;;;;5094293;28;20506;-87
2023/02/21 12:17:40;;;;;;;6.90;2.77;;;20.90;75.30;;;;;;5088519;28;20546;-86
2023/02/21 12:20:33;;;;;;;5.70;3.00;;;20.80;75.40;;;;;;5105554;28;20497;-86
2023/02/21 12:23:17;;;;;;;4.93;2.67;;;20.80;76.00;;;;;;5085154;28;20436;-86
2023/02/21 12:26:21;;;;;;;7.67;2.77;;;20.80;76.30;;;;;;5103227;28;20908;-85
2023/02/21 12:28:53;;;;;;;3.70;2.80;;;20.80;76.00;;;;;;5106350;28;21079;-85
2023/02/21 12:31:43;;;;;;;4.97;3.10;;;20.90;76.10;;;;;;5091829;28;20447;-85
2023/02/21 12:34:40;;;;;;;4.33;3.67;;;20.90;76.30;;;;;;5095377;28;20440;-84
2023/02/21 12:37:05;;;;;;;5.20;3.53;;;20.90;76.50;;;;;;5105543;28;20458;-85
2023/02/21 12:39:56;;;;;;;4.30;3.33;;;20.90;76.20;;;;;;5089731;28;20927;-83
2023/02/21 12:42:28;;;;;;;4.13;3.73;;;20.90;77.20;;;;;;5107024;28;20192;-82
2023/02/21 12:45:04;;;;;;;4.70;3.70;;;20.90;76.60;;;;;;5109667;28;20428;-83
2023/02/21 12:47:41;;;;;;;5.07;3.60;;;20.90;76.90;;;;;;5090656;28;20994;-85
2023/02/21 12:50:39;;;;;;;6.83;3.80;;;20.90;77.70;;;;;;5100957;28;20440;-82
2023/02/21 12:53:07;;;;;;;13.47;4.03;;;20.90;76.80;;;;;;5078349;28;20932;-84
2023/02/21 12:55:38;;;;;;;5.93;3.60;;;20.90;77.10;;;;;;5104917;27;20480;-86
2023/02/21 12:58:31;;;;;;;4.47;3.20;;;20.90;77.80;;;;;;5090318;28;20476;-85
2023/02/21 13:01:09;;;;;;;4.83;3.13;;;20.90;76.70;;;;;;5091949;28;20448;-85
2023/02/21 13:04:20;;;;;;;4.53;3.20;;;20.80;76.90;;;;;;5105780;28;20523;-86
2023/02/21 13:06:56;;;;;;;7.50;4.60;;;20.80;76.80;;;;;;5065292;28;20442;-87
2023/02/21 13:10:16;;;;;;;9.63;4.43;;;20.80;77.20;;;;;;5081535;28;20448;-86
2023/02/21 13:13:04;;;;;;;4.20;3.27;;;20.80;76.80;;;;;;5006635;28;20861;-84
2023/02/21 13:15:30;;;;;;;4.43;3.23;;;20.90;76.70;;;;;;5009348;28;20496;-87
2023/02/21 13:18:00;;;;;;;3.93;3.53;;;20.90;76.30;;;;;;5088712;28;20464;-84
2023/02/21 13:20:32;;;;;;;3.40;3.07;;;20.80;76.90;;;;;;5104018;28;20443;-85
2023/02/21 13:23:39;;;;;;;3.07;2.77;;;20.80;77.20;;;;;;5104198;28;20975;-86
2023/02/21 13:26:38;;;;;;;5.30;3.83;;;20.80;77.20;;;;;;5108519;28;20450;-85
2023/02/21 13:29:29;;;;;;;4.90;3.50;;;20.80;76.60;;;;;;5106945;28;20440;-86
2023/02/21 13:32:18;;;;;;;4.80;3.40;;;20.80;77.20;;;;;;5112574;28;20416;-84
2023/02/21 13:34:52;;;;;;;4.23;3.27;;;20.80;77.40;;;;;;5083257;28;20487;-89
2023/02/21 13:37:22;;;;;;;4.17;3.47;;;20.90;77.40;;;;;;5087073;28;20444;-85
2023/02/21 13:40:06;;;;;;;6.43;4.43;;;20.80;77.30;;;;;;5099860;28;20424;-84
2023/02/21 13:42:36;;;;;;;6.63;4.03;;;20.80;77.20;;;;;;5077442;28;20472;-85
2023/02/21 13:45:12;;;;;;;7.30;4.67;;;20.90;77.50;;;;;;5078085;28;20455;-84
2023/02/21 13:47:56;;;;;;;7.77;5.20;;;20.90;77.50;;;;;;5102271;28;20450;-85
2023/02/21 13:50:37;;;;;;;4.10;2.67;;;21.00;76.70;;;;;;5085164;28;20551;-85
2023/02/21 13:53:03;;;;;;;3.10;2.90;;;20.90;76.50;;;;;;5104787;28;20436;-87
2023/02/21 13:55:30;;;;;;;3.53;2.67;;;20.90;76.80;;;;;;5102601;28;20467;-87
2023/02/21 13:57:56;;;;;;;4.33;2.70;;;20.90;76.70;;;;;;5108753;28;20192;-87
2023/02/21 14:00:25;;;;;;;3.53;2.40;;;20.90;76.90;;;;;;5096187;28;20443;-84
2023/02/21 14:03:04;;;;;;;3.40;2.73;;;20.90;76.70;;;;;;5086274;28;20518;-87
2023/02/21 14:05:45;;;;;;;4.87;2.53;;;20.90;76.80;;;;;;5082441;28;20433;-84
2023/02/21 14:08:30;;;;;;;3.30;2.00;;;20.80;76.50;;;;;;5086446;28;20534;-85
2023/02/21 14:11:13;;;;;;;4.30;2.20;;;20.70;77.00;;;;;;5105042;28;20451;-84
2023/02/21 14:13:40;;;;;;;4.30;2.20;;;20.60;76.80;;;;;;5097850;28;20700;-84
2023/02/21 14:16:21;;;;;;;10.10;4.80;;;20.60;77.20;;;;;;5101434;28;20467;-84
2023/02/21 14:18:59;;;;;;;5.07;4.20;;;20.50;77.30;;;;;;5095625;28;20460;-87
2023/02/21 14:21:43;;;;;;;5.00;2.33;;;20.50;77.40;;;;;;5074608;28;20432;-84
2023/02/21 14:24:09;;;;;;;4.10;2.57;;;20.50;77.30;;;;;;5078143;28;20672;-86
2023/02/21 14:26:43;;;;;;;2.20;1.70;;;20.60;77.20;;;;;;5101551;28;20585;-84
2023/02/21 14:29:10;;;;;;;2.83;1.90;;;20.50;77.20;;;;;;5099393;28;20259;-86
2023/02/21 14:32:00;;;;;;;3.03;2.23;;;20.50;77.70;;;;;;5083292;28;20500;-86
2023/02/21 14:34:45;;;;;;;2.87;1.73;;;20.60;77.70;;;;;;5079103;28;20820;-85
2023/02/21 14:37:16;;;;;;;2.70;2.10;;;20.60;77.20;;;;;;5086390;28;20477;-84
2023/02/21 14:39:47;;;;;;;10.47;2.40;;;20.50;77.50;;;;;;5092462;28;20503;-83
2023/02/21 14:42:34;;;;;;;2.50;2.30;;;20.60;77.50;;;;;;5099340;28;20433;-83
2023/02/21 14:45:15;;;;;;;4.00;2.27;;;20.50;77.50;;;;;;5087847;28;20423;-83
2023/02/21 14:48:07;;;;;;;2.57;2.13;;;20.50;77.60;;;;;;5096088;28;20435;-83
2023/02/21 14:50:51;;;;;;;2.60;1.90;;;20.50;78.00;;;;;;5106300;28;20420;-82
2023/02/21 14:53:51;;;;;;;7.13;4.50;;;20.50;78.10;;;;;;5100691;28;20448;-86
2023/02/21 14:56:29;;;;;;;3.30;3.00;;;20.40;78.10;;;;;;5071835;28;20468;-84
2023/02/21 14:59:07;;;;;;;4.37;2.73;;;20.40;78.80;;;;;;5097199;28;20953;-85
2023/02/21 15:02:00;;;;;;;3.33;3.00;;;20.40;79.20;;;;;;5091532;28;20452;-83
2023/02/21 15:04:30;;;;;;;4.90;2.10;;;20.30;79.50;;;;;;5093579;28;20437;-84
2023/02/21 15:07:03;;;;;;;2.93;2.20;;;20.30;79.40;;;;;;5084936;28;20522;-83
2023/02/21 15:09:29;;;;;;;2.00;1.80;;;20.20;79.60;;;;;;5096746;28;20501;-83
2023/02/21 15:11:55;;;;;;;3.30;2.30;;;20.20;80.10;;;;;;5087253;28;20416;-83
2023/02/21 15:14:28;;;;;;;5.33;2.37;;;20.10;79.80;;;;;;5104699;28;20280;-84
2023/02/21 15:17:00;;;;;;;6.80;3.30;;;20.10;79.90;;;;;;5101493;28;20913;-83
2023/02/21 15:19:33;;;;;;;5.03;4.20;;;19.90;80.00;;;;;;5103746;28;20419;-87
2023/02/21 15:22:05;;;;;;;8.37;5.07;;;19.90;80.00;;;;;;5104290;28;20987;-83
2023/02/21 15:24:31;;;;;;;7.87;5.20;;;19.90;80.00;;;;;;5105364;28;20847;-86
2023/02/21 15:27:11;;;;;;;6.13;4.10;;;20.00;80.20;;;;;;5076288;28;20511;-85